createdAt,value
2022-08-22T00:02:00.956Z,20.68
2022-08-22T00:03:01.116Z,23.15
2022-08-22T00:03:15.495Z,20.62
2022-08-22T00:04:39.400Z,20.60
2022-08-22T00:07:40.613Z,20.67
2022-08-22T00:10:48.210Z,20.52
2022-08-22T00:13:35.521Z,20.54
2022-08-22T00:16:29.816Z,20.71
2022-08-22T00:19:05.380Z,20.54
2022-08-22T00:21:38.179Z,20.54
2022-08-22T00:24:47.969Z,20.58
2022-08-22T00:27:18.209Z,20.43
2022-08-22T00:29:51.111Z,20.43
2022-08-22T00:32:39.805Z,20.48
2022-08-22T00:35:30.482Z,20.48
2022-08-22T00:38:11.861Z,20.36
2022-08-22T00:40:53.643Z,20.34
2022-08-22T00:43:59.172Z,20.36
2022-08-22T00:46:40.384Z,20.37
2022-08-22T00:49:15.908Z,20.46
2022-08-22T00:52:13.889Z,20.36
2022-08-22T00:54:52.375Z,20.35
2022-08-22T00:57:54.341Z,20.42
2022-08-22T01:00:27.276Z,20.24
2022-08-22T01:03:33.052Z,20.24
2022-08-22T01:06:08.940Z,20.37
2022-08-22T01:08:50.049Z,20.48
2022-08-22T01:11:46.766Z,20.25
2022-08-22T01:14:34.834Z,20.41
2022-08-22T01:17:06.304Z,20.41
2022-08-22T01:19:54.148Z,20.34
2022-08-22T01:23:00.015Z,20.32
2022-08-22T01:26:01.154Z,20.43
2022-08-22T01:28:53.102Z,20.37
2022-08-22T01:31:47.792Z,20.45
2022-08-22T01:34:40.935Z,20.39
2022-08-22T01:37:13.750Z,20.35
2022-08-22T01:40:15.216Z,20.40
2022-08-22T01:43:08.233Z,20.41
2022-08-22T01:45:52.842Z,20.52
2022-08-22T01:48:37.250Z,20.33
2022-08-22T01:51:28.126Z,20.40
2022-08-22T01:54:04.008Z,20.51
2022-08-22T01:56:37.110Z,20.33
2022-08-22T01:59:15.865Z,20.33
2022-08-22T02:02:05.064Z,20.35
2022-08-22T02:05:01.322Z,20.40
2022-08-22T02:07:36.881Z,20.40
2022-08-22T02:10:10.919Z,20.29
2022-08-22T02:12:48.775Z,20.19
2022-08-22T02:15:24.211Z,20.36
2022-08-22T02:18:12.334Z,20.32
2022-08-22T02:21:13.226Z,20.45
2022-08-22T02:23:48.715Z,20.25
2022-08-22T02:26:26.877Z,20.27
2022-08-22T02:29:17.286Z,20.53
2022-08-22T02:31:59.252Z,20.29
2022-08-22T02:34:59.531Z,20.25
2022-08-22T02:37:51.744Z,20.24
2022-08-22T02:40:39.315Z,20.25
2022-08-22T02:43:23.132Z,20.18
2022-08-22T02:46:16.597Z,20.11
2022-08-22T02:48:50.380Z,20.24
2022-08-22T02:51:26.327Z,20.17
2022-08-22T02:54:10.735Z,20.20
2022-08-22T02:56:44.019Z,20.19
2022-08-22T02:59:19.251Z,20.30
2022-08-22T03:01:49.450Z,20.37
2022-08-22T03:04:33.708Z,20.35
2022-08-22T03:07:24.617Z,20.28
2022-08-22T03:10:18.021Z,20.26
2022-08-22T03:12:54.662Z,20.31
2022-08-22T03:15:34.101Z,20.13
2022-08-22T03:18:31.268Z,20.02
2022-08-22T03:21:15.679Z,20.02
2022-08-22T03:23:51.392Z,20.05
2022-08-22T03:26:41.702Z,20.15
2022-08-22T03:29:14.511Z,20.25
2022-08-22T03:32:07.256Z,20.10
2022-08-22T03:34:38.600Z,20.19
2022-08-22T03:37:23.346Z,20.09
2022-08-22T03:39:55.977Z,20.19
2022-08-22T03:42:31.484Z,20.15
2022-08-22T03:45:24.375Z,19.91
2022-08-22T03:48:22.898Z,19.94
2022-08-22T03:51:07.525Z,19.94
2022-08-22T03:54:02.574Z,19.99
2022-08-22T03:57:03.380Z,20.02
2022-08-22T03:59:56.750Z,20.02
2022-08-22T04:02:44.140Z,19.80
2022-08-22T04:05:38.687Z,19.83
2022-08-22T04:08:34.761Z,19.82
2022-08-22T04:11:31.615Z,19.60
2022-08-22T04:14:25.773Z,19.60
2022-08-22T04:17:22.269Z,19.63
2022-08-22T04:20:00.512Z,19.55
2022-08-22T04:22:55.042Z,19.41
2022-08-22T04:25:32.996Z,19.43
2022-08-22T04:28:05.881Z,19.50
2022-08-22T04:30:41.647Z,19.50
2022-08-22T04:33:25.945Z,19.54
2022-08-22T04:36:21.262Z,19.62
2022-08-22T04:38:56.644Z,19.65
2022-08-22T04:41:46.212Z,19.74
2022-08-22T04:44:21.930Z,19.69
2022-08-22T04:46:57.685Z,19.68
2022-08-22T04:49:39.404Z,19.45
2022-08-22T04:52:24.124Z,19.55
2022-08-22T04:55:28.399Z,19.63
2022-08-22T04:58:18.716Z,19.72
2022-08-22T05:00:54.074Z,19.82
2022-08-22T05:03:26.850Z,19.73
2022-08-22T05:05:58.869Z,19.59
2022-08-22T05:08:31.854Z,19.58
2022-08-22T05:11:05.542Z,19.72
2022-08-22T05:13:41.185Z,19.58
2022-08-22T05:16:18.214Z,19.55
2022-08-22T05:18:51.301Z,19.59
2022-08-22T05:21:27.019Z,19.64
2022-08-22T05:23:59.258Z,19.68
2022-08-22T05:26:30.961Z,19.65
2022-08-22T05:29:04.001Z,19.71
2022-08-22T05:31:51.641Z,19.77
2022-08-22T05:34:28.195Z,19.95
2022-08-22T05:37:15.565Z,19.95
2022-08-22T05:39:51.212Z,20.26
2022-08-22T05:42:32.856Z,20.11
2022-08-22T05:45:06.642Z,20.32
2022-08-22T05:47:44.423Z,20.22
2022-08-22T05:50:25.330Z,20.20
2022-08-22T05:53:15.832Z,20.30
2022-08-22T05:56:12.918Z,20.34
2022-08-22T05:58:45.424Z,20.56
2022-08-22T06:01:29.659Z,20.78
2022-08-22T06:04:27.816Z,20.46
2022-08-22T06:07:06.078Z,20.61
2022-08-22T06:09:45.222Z,20.70
2022-08-22T06:12:26.757Z,20.70
2022-08-22T06:15:15.956Z,20.77
2022-08-22T06:17:53.352Z,20.77
2022-08-22T06:20:26.150Z,20.98
2022-08-22T06:23:00.671Z,21.14
2022-08-22T06:25:36.101Z,21.14
2022-08-22T06:28:08.721Z,21.08
2022-08-22T06:30:39.920Z,21.10
2022-08-22T06:33:12.863Z,21.21
2022-08-22T06:36:03.276Z,21.53
2022-08-22T06:38:35.501Z,21.69
2022-08-22T06:41:08.711Z,21.41
2022-08-22T06:43:41.662Z,21.67
2022-08-22T06:46:16.519Z,21.47
2022-08-22T06:48:47.440Z,21.45
2022-08-22T06:51:21.221Z,21.51
2022-08-22T06:53:56.042Z,21.65
2022-08-22T06:56:29.451Z,21.62
2022-08-22T06:59:02.276Z,21.78
2022-08-22T07:01:36.991Z,21.96
2022-08-22T07:04:10.208Z,21.66
2022-08-22T07:06:43.734Z,22.01
2022-08-22T07:09:25.016Z,22.01
2022-08-22T07:11:57.867Z,22.28
2022-08-22T07:14:30.688Z,22.27
2022-08-22T07:17:04.537Z,22.40
2022-08-22T07:19:40.301Z,22.27
2022-08-22T07:22:15.693Z,22.51
2022-08-22T07:24:48.481Z,22.63
2022-08-22T07:27:27.189Z,22.29
2022-08-22T07:30:00.005Z,22.54
2022-08-22T07:32:43.144Z,22.62
2022-08-22T07:35:18.748Z,22.90
2022-08-22T07:37:58.067Z,22.91
2022-08-22T07:40:37.157Z,22.63
2022-08-22T07:43:10.228Z,22.77
2022-08-22T07:45:54.784Z,23.14
2022-08-22T07:48:44.709Z,22.74
2022-08-22T07:51:13.410Z,23.40
2022-08-22T07:53:49.124Z,23.05
2022-08-22T07:56:24.763Z,23.13
2022-08-22T07:59:13.185Z,23.01
2022-08-22T08:01:48.604Z,23.19
2022-08-22T08:04:24.285Z,23.29
2022-08-22T08:06:56.136Z,23.25
2022-08-22T08:09:28.310Z,23.45
2022-08-22T08:12:00.514Z,23.29
2022-08-22T08:14:31.900Z,23.47
2022-08-22T08:17:05.939Z,23.42
2022-08-22T08:19:38.291Z,23.46
2022-08-22T08:22:10.070Z,23.46
2022-08-22T08:24:45.116Z,23.53
2022-08-22T08:27:35.467Z,23.61
2022-08-22T08:30:15.597Z,23.48
2022-08-22T08:32:48.636Z,23.89
2022-08-22T08:35:27.830Z,23.66
2022-08-22T08:38:07.672Z,23.45
2022-08-22T08:40:56.777Z,23.52
2022-08-22T08:43:48.013Z,23.52
2022-08-22T08:46:20.827Z,24.02
2022-08-22T08:49:24.491Z,23.98
2022-08-22T08:52:13.469Z,23.98
2022-08-22T08:54:47.239Z,23.69
2022-08-22T08:57:34.446Z,23.74
2022-08-22T09:00:15.501Z,24.00
2022-08-22T09:02:56.299Z,23.78
2022-08-22T09:05:45.993Z,24.24
2022-08-22T09:08:41.807Z,24.07
2022-08-22T09:11:33.882Z,24.60
2022-08-22T09:14:23.931Z,25.15
2022-08-22T09:17:04.908Z,25.32
2022-08-22T09:19:54.524Z,25.81
2022-08-22T09:22:52.429Z,25.87
2022-08-22T09:25:38.620Z,25.72
2022-08-22T09:28:41.598Z,25.50
2022-08-22T09:31:32.817Z,26.00
2022-08-22T09:34:25.610Z,26.72
2022-08-22T09:37:16.317Z,26.52
2022-08-22T09:40:19.655Z,26.91
2022-08-22T09:43:11.056Z,27.45
2022-08-22T09:46:02.024Z,27.81
2022-08-22T09:48:40.474Z,27.81
2022-08-22T09:51:33.190Z,27.88
2022-08-22T09:54:23.873Z,28.12
2022-08-22T09:57:01.336Z,28.24
2022-08-22T09:59:53.065Z,28.25
2022-08-22T10:02:36.520Z,27.96
2022-08-22T10:05:39.475Z,27.92
2022-08-22T10:08:11.317Z,28.08
2022-08-22T10:10:46.973Z,28.16
2022-08-22T10:13:35.709Z,28.36
2022-08-22T10:16:23.014Z,28.50
2022-08-22T10:19:17.992Z,27.99
2022-08-22T10:22:10.442Z,28.17
2022-08-22T10:24:49.118Z,28.56
2022-08-22T10:27:42.848Z,28.07
2022-08-22T10:30:18.610Z,28.34
2022-08-22T10:32:51.452Z,28.06
2022-08-22T10:35:33.907Z,28.16
2022-08-22T10:38:19.753Z,28.68
2022-08-22T10:41:09.713Z,28.70
2022-08-22T10:43:47.714Z,29.05
2022-08-22T10:49:05.802Z,28.83
2022-08-22T10:51:46.625Z,29.11
2022-08-22T10:54:34.226Z,29.79
2022-08-22T10:57:21.493Z,29.61
2022-08-22T11:00:01.315Z,28.92
2022-08-22T11:02:36.744Z,28.99
2022-08-22T11:05:24.720Z,29.58
2022-08-22T11:07:58.689Z,29.58
2022-08-22T11:10:37.306Z,29.79
2022-08-22T11:13:18.709Z,29.79
2022-08-22T11:16:18.719Z,29.61
2022-08-22T11:19:14.618Z,30.03
2022-08-22T11:21:57.704Z,29.94
2022-08-22T11:24:53.912Z,30.14
2022-08-22T11:27:39.681Z,30.17
2022-08-22T11:30:18.115Z,30.17
2022-08-22T11:33:03.453Z,29.93
2022-08-22T11:35:39.496Z,29.84
2022-08-22T11:38:32.675Z,30.05
2022-08-22T11:41:06.834Z,29.92
2022-08-22T11:43:45.781Z,29.71
2022-08-22T11:46:20.284Z,29.92
2022-08-22T11:49:12.947Z,29.94
2022-08-22T11:52:04.811Z,29.74
2022-08-22T11:55:02.925Z,30.54
2022-08-22T11:57:35.777Z,30.34
2022-08-22T12:00:26.616Z,30.71
2022-08-22T12:03:12.805Z,30.71
2022-08-22T12:05:46.300Z,30.45
2022-08-22T12:08:36.447Z,30.61
2022-08-22T12:11:12.647Z,30.72
2022-08-22T12:14:05.862Z,29.98
2022-08-22T12:16:28.193Z,30.32
2022-08-22T12:19:01.529Z,30.18
2022-08-22T12:21:36.768Z,30.56
2022-08-22T12:24:31.438Z,30.08
2022-08-22T12:30:13.800Z,30.09
2022-08-22T12:32:45.844Z,29.70
2022-08-22T12:35:29.956Z,29.70
2022-08-22T12:38:27.971Z,30.28
2022-08-22T12:41:08.434Z,30.28
2022-08-22T12:43:43.507Z,30.47
2022-08-22T12:46:28.807Z,30.31
2022-08-22T12:49:16.265Z,29.85
2022-08-22T12:52:21.681Z,29.71
2022-08-22T12:55:16.651Z,30.32
2022-08-22T12:58:01.285Z,29.66
2022-08-22T13:00:34.766Z,30.04
2022-08-22T13:03:07.994Z,30.28
2022-08-22T13:05:42.023Z,30.24
2022-08-22T13:08:24.921Z,30.38
2022-08-22T13:11:04.782Z,30.47
2022-08-22T13:13:44.816Z,30.59
2022-08-22T13:16:19.647Z,30.59
2022-08-22T13:18:57.875Z,30.35
2022-08-22T13:21:36.486Z,30.48
2022-08-22T13:24:10.465Z,30.80
2022-08-22T13:26:49.347Z,30.49
2022-08-22T13:29:39.368Z,30.19
2022-08-22T13:32:02.696Z,30.14
2022-08-22T13:34:44.871Z,30.13
2022-08-22T13:37:24.468Z,29.80
2022-08-22T13:39:55.884Z,30.19
2022-08-22T13:42:30.752Z,30.19
2022-08-22T13:45:05.153Z,29.51
2022-08-22T13:47:39.309Z,29.38
2022-08-22T13:50:13.902Z,29.21
2022-08-22T13:52:58.379Z,29.21
2022-08-22T13:55:49.240Z,29.83
2022-08-22T13:58:30.536Z,29.60
2022-08-22T14:01:25.494Z,29.22
2022-08-22T14:03:58.630Z,29.22
2022-08-22T14:06:51.694Z,29.35
2022-08-22T14:09:31.467Z,29.60
2022-08-22T14:12:13.503Z,29.62
2022-08-22T14:14:46.453Z,29.26
2022-08-22T14:17:28.011Z,29.19
2022-08-22T14:20:32.491Z,29.29
2022-08-22T14:22:59.927Z,29.45
2022-08-22T14:25:29.097Z,29.66
2022-08-22T14:28:07.834Z,30.03
2022-08-22T14:30:58.189Z,30.44
2022-08-22T14:33:46.563Z,30.57
2022-08-22T14:36:28.424Z,30.57
2022-08-22T14:39:01.237Z,30.82
2022-08-22T14:41:55.632Z,30.55
2022-08-22T14:44:14.730Z,30.48
2022-08-22T14:46:53.816Z,30.40
2022-08-22T14:49:28.874Z,30.79
2022-08-22T14:52:04.485Z,30.79
2022-08-22T14:54:35.868Z,31.20
2022-08-22T14:57:11.183Z,31.33
2022-08-22T14:59:50.008Z,30.65
2022-08-22T15:02:31.557Z,31.18
2022-08-22T15:05:05.459Z,31.76
2022-08-22T15:07:37.501Z,32.10
2022-08-22T15:10:22.996Z,32.30
2022-08-22T15:12:56.028Z,32.11
2022-08-22T15:15:53.287Z,32.27
2022-08-22T15:18:33.608Z,31.92
2022-08-22T15:21:12.383Z,32.14
2022-08-22T15:23:46.957Z,32.16
2022-08-22T15:26:28.097Z,31.71
2022-08-22T15:29:06.963Z,31.25
2022-08-22T15:31:41.654Z,31.10
2022-08-22T15:34:18.002Z,31.25
2022-08-22T15:37:08.487Z,30.77
2022-08-22T15:39:40.220Z,31.22
2022-08-22T15:42:11.857Z,31.43
2022-08-22T15:44:44.340Z,31.11
2022-08-22T15:47:41.458Z,31.08
2022-08-22T15:50:15.780Z,31.12
2022-08-22T15:53:08.389Z,30.35
2022-08-22T15:55:38.775Z,30.35
2022-08-22T15:58:13.037Z,29.94
2022-08-22T16:00:49.301Z,30.12
2022-08-22T16:03:28.091Z,30.13
2022-08-22T16:06:01.043Z,29.91
2022-08-22T16:08:39.529Z,29.87
2022-08-22T16:11:24.143Z,29.79
2022-08-22T16:14:25.569Z,29.62
2022-08-22T16:17:03.828Z,29.98
2022-08-22T16:19:35.534Z,29.69
2022-08-22T16:22:08.874Z,29.67
2022-08-22T16:24:59.655Z,29.52
2022-08-22T16:27:31.220Z,29.51
2022-08-22T16:30:06.882Z,29.82
2022-08-22T16:32:37.909Z,29.83
2022-08-22T16:35:07.734Z,29.83
2022-08-22T16:37:46.067Z,29.27
2022-08-22T16:40:19.055Z,29.66
2022-08-22T16:42:51.890Z,29.35
2022-08-22T16:45:39.599Z,29.42
2022-08-22T16:48:24.646Z,29.46
2022-08-22T16:51:09.199Z,29.29
2022-08-22T16:54:01.093Z,29.99
2022-08-22T16:56:51.510Z,30.65
2022-08-22T16:59:26.759Z,30.73
2022-08-22T17:02:18.861Z,30.87
2022-08-22T17:05:13.814Z,30.87
2022-08-22T17:07:55.327Z,31.07
2022-08-22T17:10:48.501Z,31.03
2022-08-22T17:13:26.525Z,31.07
2022-08-22T17:16:15.468Z,30.99
2022-08-22T17:18:48.287Z,30.99
2022-08-22T17:21:32.494Z,31.29
2022-08-22T17:24:08.281Z,30.98
2022-08-22T17:26:55.278Z,31.45
2022-08-22T17:29:34.027Z,31.45
2022-08-22T17:32:14.856Z,31.64
2022-08-22T17:34:53.350Z,32.33
2022-08-22T17:37:54.709Z,32.15
2022-08-22T17:40:52.914Z,32.48
2022-08-22T17:43:33.531Z,32.55
2022-08-22T17:46:27.006Z,32.86
2022-08-22T17:49:02.415Z,32.48
2022-08-22T17:51:39.831Z,31.18
2022-08-22T17:54:33.953Z,29.76
2022-08-22T17:57:06.841Z,29.19
2022-08-22T17:59:39.652Z,28.46
2022-08-22T18:02:13.677Z,28.53
2022-08-22T18:04:52.530Z,28.07
2022-08-22T18:07:33.718Z,27.98
2022-08-22T18:10:34.714Z,27.99
2022-08-22T18:13:13.031Z,27.77
2022-08-22T18:15:48.627Z,27.37
2022-08-22T18:18:30.115Z,27.46
2022-08-22T18:21:01.799Z,27.20
2022-08-22T18:23:43.599Z,27.08
2022-08-22T18:26:31.162Z,27.10
2022-08-22T18:29:15.531Z,26.91
2022-08-22T18:31:54.165Z,26.65
2022-08-22T18:34:43.611Z,26.36
2022-08-22T18:37:36.798Z,26.59
2022-08-22T18:40:13.943Z,26.55
2022-08-22T18:42:52.745Z,26.34
2022-08-22T18:45:50.654Z,26.34
2022-08-22T18:48:25.554Z,26.21
2022-08-22T18:51:14.366Z,26.04
2022-08-22T18:53:59.034Z,25.99
2022-08-22T18:56:35.444Z,25.78
2022-08-22T18:59:09.028Z,25.70
2022-08-22T19:02:13.256Z,25.46
2022-08-22T19:05:08.680Z,25.51
2022-08-22T19:07:44.249Z,25.31
2022-08-22T19:10:27.722Z,25.17
2022-08-22T19:13:27.696Z,25.13
2022-08-22T19:16:18.282Z,25.12
2022-08-22T19:19:08.443Z,24.74
2022-08-22T19:21:57.577Z,24.70
2022-08-22T19:24:30.158Z,24.71
2022-08-22T19:27:31.330Z,24.47
2022-08-22T19:30:00.688Z,24.48
2022-08-22T19:32:51.438Z,24.19
2022-08-22T19:35:32.335Z,23.97
2022-08-22T19:38:05.163Z,24.02
2022-08-22T19:40:56.139Z,23.84
2022-08-22T19:43:30.651Z,23.67
2022-08-22T19:46:06.189Z,23.61
2022-08-22T19:48:52.515Z,23.59
2022-08-22T19:51:27.913Z,23.59
2022-08-22T19:54:18.417Z,23.61
2022-08-22T19:57:11.592Z,23.39
2022-08-22T19:59:51.071Z,23.39
2022-08-22T20:02:26.977Z,23.31
2022-08-22T20:05:00.174Z,23.17
2022-08-22T20:07:44.466Z,23.25
2022-08-22T20:10:43.996Z,23.24
2022-08-22T20:13:22.815Z,23.13
2022-08-22T20:16:10.308Z,22.99
2022-08-22T20:19:07.296Z,23.15
2022-08-22T20:21:58.853Z,23.15
2022-08-22T20:24:40.524Z,23.31
2022-08-22T20:27:30.664Z,23.15
2022-08-22T20:30:15.188Z,23.15
2022-08-22T20:32:50.696Z,23.29
2022-08-22T20:35:23.469Z,23.33
2022-08-22T20:38:07.405Z,23.30
2022-08-22T20:40:56.254Z,23.21
2022-08-22T20:43:29.218Z,23.21
2022-08-22T20:46:04.227Z,23.32
2022-08-22T20:48:40.223Z,23.32
2022-08-22T20:51:12.284Z,23.31
2022-08-22T20:53:42.319Z,23.39
2022-08-22T20:56:12.127Z,23.45
2022-08-22T20:58:43.591Z,23.51
2022-08-22T21:01:15.697Z,23.46
2022-08-22T21:03:51.975Z,23.47
2022-08-22T21:06:34.350Z,23.41
2022-08-22T21:09:36.596Z,23.54
2022-08-22T21:12:09.341Z,23.50
2022-08-22T21:14:42.294Z,23.50
2022-08-22T21:17:23.796Z,23.55
2022-08-22T21:19:53.629Z,23.48
2022-08-22T21:22:30.059Z,23.57
2022-08-22T21:25:01.812Z,23.65
2022-08-22T21:27:34.119Z,23.67
2022-08-22T21:30:06.631Z,23.59
2022-08-22T21:32:53.623Z,23.62
2022-08-22T21:35:32.100Z,23.68
2022-08-22T21:38:02.899Z,23.58
2022-08-22T21:40:35.806Z,23.55
2022-08-22T21:43:11.084Z,23.46
2022-08-22T21:45:44.023Z,23.50
2022-08-22T21:48:40.706Z,23.63
2022-08-22T21:51:34.246Z,23.45
2022-08-22T21:54:24.734Z,23.52
2022-08-22T21:59:59.762Z,23.33
2022-08-22T22:02:36.498Z,23.46
2022-08-22T22:05:11.339Z,23.16
2022-08-22T22:07:43.794Z,23.16
2022-08-22T22:10:16.340Z,23.36
2022-08-22T22:12:48.248Z,23.19
2022-08-22T22:15:21.272Z,23.04
2022-08-22T22:17:51.276Z,23.04
2022-08-22T22:20:23.886Z,23.14
2022-08-22T22:22:53.655Z,23.07
2022-08-22T22:25:40.008Z,23.09
2022-08-22T22:27:55.688Z,23.22
2022-08-22T22:30:27.661Z,23.31
2022-08-22T22:32:57.223Z,23.26
2022-08-22T22:35:27.465Z,23.26
2022-08-22T22:37:57.745Z,23.17
2022-08-22T22:40:27.379Z,23.28
2022-08-22T22:42:57.211Z,23.07
2022-08-22T22:45:27.040Z,23.23
2022-08-22T22:47:56.714Z,22.87
2022-08-22T22:50:26.398Z,22.87
2022-08-22T22:52:56.173Z,22.94
2022-08-22T22:55:26.410Z,22.72
2022-08-22T22:57:59.034Z,22.87
2022-08-22T23:00:30.755Z,22.71
2022-08-22T23:03:02.756Z,22.61
2022-08-22T23:05:32.672Z,22.56
2022-08-22T23:08:03.567Z,22.60
2022-08-22T23:10:34.379Z,22.59
2022-08-22T23:13:06.586Z,22.43
2022-08-22T23:15:37.633Z,22.45
2022-08-22T23:18:07.423Z,22.33
2022-08-22T23:20:36.923Z,22.10
2022-08-22T23:23:06.695Z,22.10
2022-08-22T23:25:36.469Z,22.21
2022-08-22T23:28:08.027Z,22.11
2022-08-22T23:30:37.800Z,22.11
2022-08-22T23:33:07.871Z,22.14
2022-08-22T23:35:37.632Z,22.04
2022-08-22T23:38:09.477Z,22.06
2022-08-22T23:40:39.233Z,22.07
2022-08-22T23:43:09.094Z,21.96
2022-08-22T23:45:38.850Z,21.96
2022-08-22T23:48:09.515Z,21.99
2022-08-22T23:50:39.287Z,21.89
2022-08-22T23:53:09.060Z,21.88
2022-08-22T23:55:39.404Z,21.87
2022-08-22T23:58:11.349Z,21.77
